Way, Mississippi
Current Conditions -  °F | °C
As of 12:54 PM on Tuesday 27 Jan 2015 (Local Time) from KJAN Reporting Station
Clear Clear  
Wind Chill: 67°   Ceiling: Unl
Heat Index: 67°   Visibility: 10mi
Dew Point: 31°   Wind: 14mph
Humidity: 26%   Direction: 350°N
Pressure: 30.08"   Gusts: NA
Location:  32.6346°N, 89.9822°W
Report Text: KJAN 271854Z 35012KT 10SM CLR 19/M01 A3008 RMK AO2 SLP185 T01941006
Loading
Personal Weather Stations






























Interactive Weather Map New forecast layout! Learn more

10-Day Weather Forecast

Advertisements
Track Severe Weather on mobile